sensor_id;sensor_type;location;lat;lon;timestamp;temperature;humidity
18240;DHT22;9244;50.828;4.718;2023-07-31T00:00:06;16.00;99.90
18240;DHT22;9244;50.828;4.718;2023-07-31T00:02:34;16.00;99.90
18240;DHT22;9244;50.828;4.718;2023-07-31T00:05:00;16.10;99.90
18240;DHT22;9244;50.828;4.718;2023-07-31T00:07:26;16.00;99.90
18240;DHT22;9244;50.828;4.718;2023-07-31T00:09:52;16.10;99.90
18240;DHT22;9244;50.828;4.718;2023-07-31T00:12:19;16.20;99.90
18240;DHT22;9244;50.828;4.718;2023-07-31T00:14:45;16.20;99.90
18240;DHT22;9244;50.828;4.718;2023-07-31T00:17:11;16.20;99.90
18240;DHT22;9244;50.828;4.718;2023-07-31T00:19:37;16.20;99.90
18240;DHT22;9244;50.828;4.718;2023-07-31T00:22:02;16.20;99.90
18240;DHT22;9244;50.828;4.718;2023-07-31T00:24:28;16.20;99.90
18240;DHT22;9244;50.828;4.718;2023-07-31T00:26:54;16.20;99.90
18240;DHT22;9244;50.828;4.718;2023-07-31T00:29:19;16.30;99.90
18240;DHT22;9244;50.828;4.718;2023-07-31T00:31:45;16.30;99.90
18240;DHT22;9244;50.828;4.718;2023-07-31T00:34:11;16.30;99.90
18240;DHT22;9244;50.828;4.718;2023-07-31T00:36:36;16.30;99.90
18240;DHT22;9244;50.828;4.718;2023-07-31T00:39:02;16.30;99.90
18240;DHT22;9244;50.828;4.718;2023-07-31T00:41:27;16.30;99.90
18240;DHT22;9244;50.828;4.718;2023-07-31T00:43:53;16.30;99.90
18240;DHT22;9244;50.828;4.718;2023-07-31T00:46:19;16.30;99.90
18240;DHT22;9244;50.828;4.718;2023-07-31T00:48:45;16.40;99.90
18240;DHT22;9244;50.828;4.718;2023-07-31T00:51:11;16.40;99.90
18240;DHT22;9244;50.828;4.718;2023-07-31T00:53:37;16.40;99.90
18240;DHT22;9244;50.828;4.718;2023-07-31T00:56:03;16.40;99.90
18240;DHT22;9244;50.828;4.718;2023-07-31T00:58:30;16.40;99.90
18240;DHT22;9244;50.828;4.718;2023-07-31T01:00:56;16.40;99.90
18240;DHT22;9244;50.828;4.718;2023-07-31T01:03:21;16.50;99.90
18240;DHT22;9244;50.828;4.718;2023-07-31T01:09:01;16.40;99.90
18240;DHT22;9244;50.828;4.718;2023-07-31T01:11:29;16.40;99.90
18240;DHT22;9244;50.828;4.718;2023-07-31T01:13:56;16.40;99.90
18240;DHT22;9244;50.828;4.718;2023-07-31T01:16:22;16.40;99.90
18240;DHT22;9244;50.828;4.718;2023-07-31T01:18:47;16.40;99.90
18240;DHT22;9244;50.828;4.718;2023-07-31T01:21:41;16.40;99.90
18240;DHT22;9244;50.828;4.718;2023-07-31T01:27:17;16.50;99.90
18240;DHT22;9244;50.828;4.718;2023-07-31T01:32:19;16.40;99.90
18240;DHT22;9244;50.828;4.718;2023-07-31T01:34:46;16.40;99.90
18240;DHT22;9244;50.828;4.718;2023-07-31T01:37:12;16.40;99.90
18240;DHT22;9244;50.828;4.718;2023-07-31T01:39:38;16.40;99.90
18240;DHT22;9244;50.828;4.718;2023-07-31T01:42:04;16.40;99.90
18240;DHT22;9244;50.828;4.718;2023-07-31T01:44:30;16.40;99.90
18240;DHT22;9244;50.828;4.718;2023-07-31T01:46:56;16.40;99.90
18240;DHT22;9244;50.828;4.718;2023-07-31T01:49:21;16.40;99.90
18240;DHT22;9244;50.828;4.718;2023-07-31T01:51:47;16.40;99.90
18240;DHT22;9244;50.828;4.718;2023-07-31T01:54:12;16.30;99.90
18240;DHT22;9244;50.828;4.718;2023-07-31T01:56:38;16.30;99.90
18240;DHT22;9244;50.828;4.718;2023-07-31T01:59:04;16.40;99.90
18240;DHT22;9244;50.828;4.718;2023-07-31T02:01:29;16.30;99.90
18240;DHT22;9244;50.828;4.718;2023-07-31T02:03:55;16.40;99.90
18240;DHT22;9244;50.828;4.718;2023-07-31T02:06:20;16.40;99.90
18240;DHT22;9244;50.828;4.718;2023-07-31T02:08:47;16.40;99.90
18240;DHT22;9244;50.828;4.718;2023-07-31T02:11:13;16.40;99.90
18240;DHT22;9244;50.828;4.718;2023-07-31T02:13:39;16.40;99.90
18240;DHT22;9244;50.828;4.718;2023-07-31T02:16:04;16.40;99.90
18240;DHT22;9244;50.828;4.718;2023-07-31T02:18:30;16.40;99.90
18240;DHT22;9244;50.828;4.718;2023-07-31T02:20:55;16.40;99.90
18240;DHT22;9244;50.828;4.718;2023-07-31T02:23:21;16.40;99.90
18240;DHT22;9244;50.828;4.718;2023-07-31T02:25:47;16.40;99.90
18240;DHT22;9244;50.828;4.718;2023-07-31T02:28:13;16.40;99.90
18240;DHT22;9244;50.828;4.718;2023-07-31T02:30:38;16.40;99.90
18240;DHT22;9244;50.828;4.718;2023-07-31T02:33:05;16.40;99.90
18240;DHT22;9244;50.828;4.718;2023-07-31T02:35:31;16.40;99.90
18240;DHT22;9244;50.828;4.718;2023-07-31T02:37:56;16.50;99.90
18240;DHT22;9244;50.828;4.718;2023-07-31T02:40:22;16.40;99.90
18240;DHT22;9244;50.828;4.718;2023-07-31T02:42:48;16.40;99.90
18240;DHT22;9244;50.828;4.718;2023-07-31T02:45:14;16.40;99.90
18240;DHT22;9244;50.828;4.718;2023-07-31T02:47:39;16.40;99.90
18240;DHT22;9244;50.828;4.718;2023-07-31T02:50:05;16.40;99.90
18240;DHT22;9244;50.828;4.718;2023-07-31T02:52:31;16.40;99.90
18240;DHT22;9244;50.828;4.718;2023-07-31T02:54:58;16.40;99.90
18240;DHT22;9244;50.828;4.718;2023-07-31T02:57:23;16.40;99.90
18240;DHT22;9244;50.828;4.718;2023-07-31T02:59:49;16.40;99.90
18240;DHT22;9244;50.828;4.718;2023-07-31T03:02:15;16.40;99.90
18240;DHT22;9244;50.828;4.718;2023-07-31T03:04:40;16.40;99.90
18240;DHT22;9244;50.828;4.718;2023-07-31T03:07:06;16.40;99.90
18240;DHT22;9244;50.828;4.718;2023-07-31T03:09:32;16.40;99.90
18240;DHT22;9244;50.828;4.718;2023-07-31T03:11:57;16.40;99.90
18240;DHT22;9244;50.828;4.718;2023-07-31T03:14:23;16.40;99.90
18240;DHT22;9244;50.828;4.718;2023-07-31T03:16:49;16.50;99.90
18240;DHT22;9244;50.828;4.718;2023-07-31T03:19:14;16.50;99.90
18240;DHT22;9244;50.828;4.718;2023-07-31T03:21:41;16.50;99.90
18240;DHT22;9244;50.828;4.718;2023-07-31T03:24:06;16.50;99.90
18240;DHT22;9244;50.828;4.718;2023-07-31T03:26:32;16.50;99.90
18240;DHT22;9244;50.828;4.718;2023-07-31T03:28:58;16.50;99.90
18240;DHT22;9244;50.828;4.718;2023-07-31T03:31:24;16.50;99.90
18240;DHT22;9244;50.828;4.718;2023-07-31T03:33:49;16.50;99.90
18240;DHT22;9244;50.828;4.718;2023-07-31T03:36:15;16.50;99.90
18240;DHT22;9244;50.828;4.718;2023-07-31T03:38:40;16.50;99.90
18240;DHT22;9244;50.828;4.718;2023-07-31T03:41:06;16.50;99.90
18240;DHT22;9244;50.828;4.718;2023-07-31T03:43:32;16.50;99.90
18240;DHT22;9244;50.828;4.718;2023-07-31T03:46:00;16.50;99.90
18240;DHT22;9244;50.828;4.718;2023-07-31T03:48:25;16.50;99.90
18240;DHT22;9244;50.828;4.718;2023-07-31T03:50:51;16.50;99.90
18240;DHT22;9244;50.828;4.718;2023-07-31T03:53:17;16.50;99.90
18240;DHT22;9244;50.828;4.718;2023-07-31T03:55:43;16.50;99.90
18240;DHT22;9244;50.828;4.718;2023-07-31T03:58:08;16.50;99.90
18240;DHT22;9244;50.828;4.718;2023-07-31T04:00:34;16.50;99.90
18240;DHT22;9244;50.828;4.718;2023-07-31T04:03:00;16.50;99.90
18240;DHT22;9244;50.828;4.718;2023-07-31T04:05:25;16.50;99.90
18240;DHT22;9244;50.828;4.718;2023-07-31T04:07:51;16.40;99.90
18240;DHT22;9244;50.828;4.718;2023-07-31T04:10:17;16.30;99.90
18240;DHT22;9244;50.828;4.718;2023-07-31T04:12:42;16.30;99.90
18240;DHT22;9244;50.828;4.718;2023-07-31T04:15:08;16.30;99.90
18240;DHT22;9244;50.828;4.718;2023-07-31T04:17:34;16.20;99.90
18240;DHT22;9244;50.828;4.718;2023-07-31T04:19:59;16.20;99.90
18240;DHT22;9244;50.828;4.718;2023-07-31T04:22:25;16.20;99.90
18240;DHT22;9244;50.828;4.718;2023-07-31T04:24:51;16.20;99.90
18240;DHT22;9244;50.828;4.718;2023-07-31T04:27:16;16.20;99.90
18240;DHT22;9244;50.828;4.718;2023-07-31T04:29:42;16.20;99.90
18240;DHT22;9244;50.828;4.718;2023-07-31T04:32:09;16.10;99.90
18240;DHT22;9244;50.828;4.718;2023-07-31T04:34:35;16.10;99.90
18240;DHT22;9244;50.828;4.718;2023-07-31T04:37:01;16.10;99.90
18240;DHT22;9244;50.828;4.718;2023-07-31T04:39:26;16.20;99.90
18240;DHT22;9244;50.828;4.718;2023-07-31T04:41:52;16.20;99.90
18240;DHT22;9244;50.828;4.718;2023-07-31T04:44:17;16.10;99.90
18240;DHT22;9244;50.828;4.718;2023-07-31T04:46:43;16.20;99.90
18240;DHT22;9244;50.828;4.718;2023-07-31T04:49:08;16.20;99.90
18240;DHT22;9244;50.828;4.718;2023-07-31T04:51:34;16.20;99.90
18240;DHT22;9244;50.828;4.718;2023-07-31T04:54:00;16.20;99.90
18240;DHT22;9244;50.828;4.718;2023-07-31T04:56:25;16.20;99.90
18240;DHT22;9244;50.828;4.718;2023-07-31T04:58:51;16.20;99.90
18240;DHT22;9244;50.828;4.718;2023-07-31T05:01:16;16.20;99.90
18240;DHT22;9244;50.828;4.718;2023-07-31T05:03:42;16.20;99.90
18240;DHT22;9244;50.828;4.718;2023-07-31T05:06:08;16.20;99.90
18240;DHT22;9244;50.828;4.718;2023-07-31T05:08:33;16.20;99.90
18240;DHT22;9244;50.828;4.718;2023-07-31T05:10:59;16.30;99.90
18240;DHT22;9244;50.828;4.718;2023-07-31T05:13:24;16.30;99.90
18240;DHT22;9244;50.828;4.718;2023-07-31T05:15:50;16.20;99.90
18240;DHT22;9244;50.828;4.718;2023-07-31T05:18:16;16.20;99.90
18240;DHT22;9244;50.828;4.718;2023-07-31T05:20:41;16.30;99.90
18240;DHT22;9244;50.828;4.718;2023-07-31T05:23:07;16.20;99.90
18240;DHT22;9244;50.828;4.718;2023-07-31T05:25:33;16.20;99.90
18240;DHT22;9244;50.828;4.718;2023-07-31T05:27:58;16.10;99.90
18240;DHT22;9244;50.828;4.718;2023-07-31T05:30:24;16.10;99.90
18240;DHT22;9244;50.828;4.718;2023-07-31T05:32:49;16.00;99.90
18240;DHT22;9244;50.828;4.718;2023-07-31T05:35:15;16.00;99.90
18240;DHT22;9244;50.828;4.718;2023-07-31T05:37:41;16.00;99.90
18240;DHT22;9244;50.828;4.718;2023-07-31T05:40:07;16.00;99.90
18240;DHT22;9244;50.828;4.718;2023-07-31T05:42:32;15.90;99.90
18240;DHT22;9244;50.828;4.718;2023-07-31T05:44:58;15.90;99.90
18240;DHT22;9244;50.828;4.718;2023-07-31T05:47:24;15.80;99.90
18240;DHT22;9244;50.828;4.718;2023-07-31T05:49:49;15.80;99.90
18240;DHT22;9244;50.828;4.718;2023-07-31T05:52:18;15.70;99.90
18240;DHT22;9244;50.828;4.718;2023-07-31T05:54:44;15.70;99.90
18240;DHT22;9244;50.828;4.718;2023-07-31T05:57:11;15.70;99.90
18240;DHT22;9244;50.828;4.718;2023-07-31T05:59:37;15.80;99.90
18240;DHT22;9244;50.828;4.718;2023-07-31T06:02:02;15.80;99.90
18240;DHT22;9244;50.828;4.718;2023-07-31T06:04:28;15.80;99.90
18240;DHT22;9244;50.828;4.718;2023-07-31T06:06:54;15.80;99.90
18240;DHT22;9244;50.828;4.718;2023-07-31T06:09:19;15.80;99.90
18240;DHT22;9244;50.828;4.718;2023-07-31T06:11:45;15.80;99.90
18240;DHT22;9244;50.828;4.718;2023-07-31T06:14:11;15.80;99.90
18240;DHT22;9244;50.828;4.718;2023-07-31T06:16:37;15.80;99.90
18240;DHT22;9244;50.828;4.718;2023-07-31T06:19:03;15.80;99.90
18240;DHT22;9244;50.828;4.718;2023-07-31T06:21:29;15.80;99.90
18240;DHT22;9244;50.828;4.718;2023-07-31T06:23:55;15.80;99.90
18240;DHT22;9244;50.828;4.718;2023-07-31T06:26:20;15.80;99.90
18240;DHT22;9244;50.828;4.718;2023-07-31T06:28:46;15.80;99.90
18240;DHT22;9244;50.828;4.718;2023-07-31T06:31:12;15.80;99.90
18240;DHT22;9244;50.828;4.718;2023-07-31T06:33:37;15.80;99.90
18240;DHT22;9244;50.828;4.718;2023-07-31T06:36:03;15.80;99.90
18240;DHT22;9244;50.828;4.718;2023-07-31T06:38:29;15.90;99.90
18240;DHT22;9244;50.828;4.718;2023-07-31T06:40:54;15.90;99.90
18240;DHT22;9244;50.828;4.718;2023-07-31T06:43:20;15.90;99.90
18240;DHT22;9244;50.828;4.718;2023-07-31T06:45:46;16.00;99.90
18240;DHT22;9244;50.828;4.718;2023-07-31T06:48:15;16.00;99.90
18240;DHT22;9244;50.828;4.718;2023-07-31T06:50:41;16.00;99.90
18240;DHT22;9244;50.828;4.718;2023-07-31T06:53:06;16.00;99.90
18240;DHT22;9244;50.828;4.718;2023-07-31T06:55:32;16.00;99.90
18240;DHT22;9244;50.828;4.718;2023-07-31T06:57:58;16.00;99.90
18240;DHT22;9244;50.828;4.718;2023-07-31T07:00:23;16.00;99.90
18240;DHT22;9244;50.828;4.718;2023-07-31T07:02:50;16.00;99.90
18240;DHT22;9244;50.828;4.718;2023-07-31T07:05:16;16.10;99.90
18240;DHT22;9244;50.828;4.718;2023-07-31T07:07:43;16.10;99.90
18240;DHT22;9244;50.828;4.718;2023-07-31T07:10:09;16.10;99.90
18240;DHT22;9244;50.828;4.718;2023-07-31T07:12:35;16.20;99.90
18240;DHT22;9244;50.828;4.718;2023-07-31T07:15:01;16.20;99.90
18240;DHT22;9244;50.828;4.718;2023-07-31T07:17:28;16.20;99.90
18240;DHT22;9244;50.828;4.718;2023-07-31T07:19:56;16.30;99.90
18240;DHT22;9244;50.828;4.718;2023-07-31T07:22:22;16.30;99.90
18240;DHT22;9244;50.828;4.718;2023-07-31T07:24:48;16.30;99.90
18240;DHT22;9244;50.828;4.718;2023-07-31T07:27:14;16.30;99.90
18240;DHT22;9244;50.828;4.718;2023-07-31T07:29:40;16.40;99.90
18240;DHT22;9244;50.828;4.718;2023-07-31T07:32:06;16.40;99.90
18240;DHT22;9244;50.828;4.718;2023-07-31T07:34:31;16.40;99.90
18240;DHT22;9244;50.828;4.718;2023-07-31T07:36:57;16.50;99.90
18240;DHT22;9244;50.828;4.718;2023-07-31T07:39:23;16.50;99.90
18240;DHT22;9244;50.828;4.718;2023-07-31T07:41:48;16.50;99.90
18240;DHT22;9244;50.828;4.718;2023-07-31T07:44:14;16.60;99.90
18240;DHT22;9244;50.828;4.718;2023-07-31T07:46:40;16.60;99.90
18240;DHT22;9244;50.828;4.718;2023-07-31T07:49:06;16.60;99.90
18240;DHT22;9244;50.828;4.718;2023-07-31T07:51:32;16.60;99.90
18240;DHT22;9244;50.828;4.718;2023-07-31T07:53:58;16.60;99.90
18240;DHT22;9244;50.828;4.718;2023-07-31T07:56:26;16.60;99.90
18240;DHT22;9244;50.828;4.718;2023-07-31T07:58:53;16.70;99.90
18240;DHT22;9244;50.828;4.718;2023-07-31T08:01:18;16.70;99.90
18240;DHT22;9244;50.828;4.718;2023-07-31T08:03:44;16.70;99.90
18240;DHT22;9244;50.828;4.718;2023-07-31T08:06:10;16.70;99.90
18240;DHT22;9244;50.828;4.718;2023-07-31T08:08:36;16.70;99.90
18240;DHT22;9244;50.828;4.718;2023-07-31T08:11:02;16.80;99.90
18240;DHT22;9244;50.828;4.718;2023-07-31T08:13:28;16.80;99.90
18240;DHT22;9244;50.828;4.718;2023-07-31T08:15:53;16.80;99.90
18240;DHT22;9244;50.828;4.718;2023-07-31T08:18:19;16.80;99.90
18240;DHT22;9244;50.828;4.718;2023-07-31T08:20:45;16.70;99.90
18240;DHT22;9244;50.828;4.718;2023-07-31T08:23:11;16.80;99.90
18240;DHT22;9244;50.828;4.718;2023-07-31T08:25:37;16.90;99.90
18240;DHT22;9244;50.828;4.718;2023-07-31T08:28:03;17.00;99.90
18240;DHT22;9244;50.828;4.718;2023-07-31T08:30:29;17.10;99.90
18240;DHT22;9244;50.828;4.718;2023-07-31T08:32:55;17.00;99.90
18240;DHT22;9244;50.828;4.718;2023-07-31T08:35:21;17.00;99.90
18240;DHT22;9244;50.828;4.718;2023-07-31T08:37:46;16.90;99.90
18240;DHT22;9244;50.828;4.718;2023-07-31T08:40:12;16.80;99.90
18240;DHT22;9244;50.828;4.718;2023-07-31T08:42:49;16.90;99.90
18240;DHT22;9244;50.828;4.718;2023-07-31T08:45:17;16.90;99.90
18240;DHT22;9244;50.828;4.718;2023-07-31T08:47:45;17.00;99.90
18240;DHT22;9244;50.828;4.718;2023-07-31T08:50:16;16.90;99.90
18240;DHT22;9244;50.828;4.718;2023-07-31T08:52:43;16.90;99.90
18240;DHT22;9244;50.828;4.718;2023-07-31T08:55:09;16.80;99.90
18240;DHT22;9244;50.828;4.718;2023-07-31T08:57:37;16.80;99.90
18240;DHT22;9244;50.828;4.718;2023-07-31T09:00:04;16.90;99.90
18240;DHT22;9244;50.828;4.718;2023-07-31T09:03:00;16.80;99.90
18240;DHT22;9244;50.828;4.718;2023-07-31T09:05:29;16.70;99.90
18240;DHT22;9244;50.828;4.718;2023-07-31T09:07:56;16.70;99.90
18240;DHT22;9244;50.828;4.718;2023-07-31T09:10:22;16.70;99.90
18240;DHT22;9244;50.828;4.718;2023-07-31T09:12:49;16.80;99.90
18240;DHT22;9244;50.828;4.718;2023-07-31T09:15:16;16.90;99.90
18240;DHT22;9244;50.828;4.718;2023-07-31T09:17:42;17.00;99.90
18240;DHT22;9244;50.828;4.718;2023-07-31T09:20:20;17.00;99.90
18240;DHT22;9244;50.828;4.718;2023-07-31T09:22:48;16.90;99.90
18240;DHT22;9244;50.828;4.718;2023-07-31T09:25:24;16.80;99.90
18240;DHT22;9244;50.828;4.718;2023-07-31T09:27:59;16.80;99.90
18240;DHT22;9244;50.828;4.718;2023-07-31T09:30:26;16.90;99.90
18240;DHT22;9244;50.828;4.718;2023-07-31T09:33:03;17.00;99.90
18240;DHT22;9244;50.828;4.718;2023-07-31T09:35:33;17.10;99.90
18240;DHT22;9244;50.828;4.718;2023-07-31T09:38:01;17.10;99.90
18240;DHT22;9244;50.828;4.718;2023-07-31T09:40:36;17.20;99.90
18240;DHT22;9244;50.828;4.718;2023-07-31T09:43:03;17.30;99.90
18240;DHT22;9244;50.828;4.718;2023-07-31T09:45:30;17.40;99.90
18240;DHT22;9244;50.828;4.718;2023-07-31T09:47:56;17.50;99.90
18240;DHT22;9244;50.828;4.718;2023-07-31T09:50:24;17.60;99.90
18240;DHT22;9244;50.828;4.718;2023-07-31T09:52:51;17.60;99.90
18240;DHT22;9244;50.828;4.718;2023-07-31T09:55:18;17.50;99.90
18240;DHT22;9244;50.828;4.718;2023-07-31T09:57:48;17.50;99.90
18240;DHT22;9244;50.828;4.718;2023-07-31T10:00:16;17.40;99.90
18240;DHT22;9244;50.828;4.718;2023-07-31T10:02:45;17.30;99.90
18240;DHT22;9244;50.828;4.718;2023-07-31T10:05:13;17.30;99.90
18240;DHT22;9244;50.828;4.718;2023-07-31T10:07:42;17.30;99.90
18240;DHT22;9244;50.828;4.718;2023-07-31T10:10:09;17.40;99.90
18240;DHT22;9244;50.828;4.718;2023-07-31T10:12:35;17.50;99.90
18240;DHT22;9244;50.828;4.718;2023-07-31T10:15:02;17.70;99.90
18240;DHT22;9244;50.828;4.718;2023-07-31T10:17:29;17.50;99.90
18240;DHT22;9244;50.828;4.718;2023-07-31T10:19:59;17.70;99.90
18240;DHT22;9244;50.828;4.718;2023-07-31T10:22:27;17.70;99.90
18240;DHT22;9244;50.828;4.718;2023-07-31T10:24:54;17.80;99.90
18240;DHT22;9244;50.828;4.718;2023-07-31T10:27:20;17.60;99.90
18240;DHT22;9244;50.828;4.718;2023-07-31T10:29:47;17.60;99.90
18240;DHT22;9244;50.828;4.718;2023-07-31T10:32:14;17.50;99.90
18240;DHT22;9244;50.828;4.718;2023-07-31T10:34:41;17.70;99.90
18240;DHT22;9244;50.828;4.718;2023-07-31T10:37:23;17.80;99.90
18240;DHT22;9244;50.828;4.718;2023-07-31T10:42:46;18.10;99.90
18240;DHT22;9244;50.828;4.718;2023-07-31T10:45:13;18.30;99.90
18240;DHT22;9244;50.828;4.718;2023-07-31T10:47:45;18.10;99.90
18240;DHT22;9244;50.828;4.718;2023-07-31T10:50:21;18.20;99.90
18240;DHT22;9244;50.828;4.718;2023-07-31T10:52:49;18.20;99.90
18240;DHT22;9244;50.828;4.718;2023-07-31T10:55:23;18.30;99.90
18240;DHT22;9244;50.828;4.718;2023-07-31T10:57:49;18.30;99.90
18240;DHT22;9244;50.828;4.718;2023-07-31T11:00:19;18.30;99.90
18240;DHT22;9244;50.828;4.718;2023-07-31T11:02:56;18.20;99.90
18240;DHT22;9244;50.828;4.718;2023-07-31T11:08:12;18.20;99.90
18240;DHT22;9244;50.828;4.718;2023-07-31T11:10:38;18.30;99.90
18240;DHT22;9244;50.828;4.718;2023-07-31T11:13:04;18.40;99.90
18240;DHT22;9244;50.828;4.718;2023-07-31T11:15:31;18.50;99.90
18240;DHT22;9244;50.828;4.718;2023-07-31T11:17:56;18.50;99.90
18240;DHT22;9244;50.828;4.718;2023-07-31T11:20:26;18.40;99.90
18240;DHT22;9244;50.828;4.718;2023-07-31T11:22:52;18.40;99.90
18240;DHT22;9244;50.828;4.718;2023-07-31T11:25:18;18.40;99.90
18240;DHT22;9244;50.828;4.718;2023-07-31T11:27:44;18.40;99.90
18240;DHT22;9244;50.828;4.718;2023-07-31T11:30:10;18.50;99.90
18240;DHT22;9244;50.828;4.718;2023-07-31T11:32:37;18.60;99.90
18240;DHT22;9244;50.828;4.718;2023-07-31T11:35:03;18.60;99.90
18240;DHT22;9244;50.828;4.718;2023-07-31T11:37:41;18.60;99.90
18240;DHT22;9244;50.828;4.718;2023-07-31T11:40:07;18.70;99.90
18240;DHT22;9244;50.828;4.718;2023-07-31T11:42:35;18.70;99.90
18240;DHT22;9244;50.828;4.718;2023-07-31T11:45:07;18.70;99.90
18240;DHT22;9244;50.828;4.718;2023-07-31T11:47:35;18.80;99.90
18240;DHT22;9244;50.828;4.718;2023-07-31T11:50:03;18.90;99.90
18240;DHT22;9244;50.828;4.718;2023-07-31T11:52:40;19.10;99.90
18240;DHT22;9244;50.828;4.718;2023-07-31T11:55:08;19.10;99.90
18240;DHT22;9244;50.828;4.718;2023-07-31T11:57:36;19.00;99.90
18240;DHT22;9244;50.828;4.718;2023-07-31T12:00:03;18.90;99.90
18240;DHT22;9244;50.828;4.718;2023-07-31T12:02:29;18.90;99.90
18240;DHT22;9244;50.828;4.718;2023-07-31T12:04:55;19.00;99.90
18240;DHT22;9244;50.828;4.718;2023-07-31T12:07:20;19.00;99.90
18240;DHT22;9244;50.828;4.718;2023-07-31T12:09:55;19.00;99.90
18240;DHT22;9244;50.828;4.718;2023-07-31T12:12:22;19.10;99.90
18240;DHT22;9244;50.828;4.718;2023-07-31T12:14:48;19.10;99.90
18240;DHT22;9244;50.828;4.718;2023-07-31T12:17:16;19.30;99.90
18240;DHT22;9244;50.828;4.718;2023-07-31T12:19:42;19.60;99.90
18240;DHT22;9244;50.828;4.718;2023-07-31T12:22:15;19.80;99.90
18240;DHT22;9244;50.828;4.718;2023-07-31T12:24:42;19.90;99.90
18240;DHT22;9244;50.828;4.718;2023-07-31T12:27:15;19.90;99.90
18240;DHT22;9244;50.828;4.718;2023-07-31T12:29:43;19.90;99.90
18240;DHT22;9244;50.828;4.718;2023-07-31T12:32:25;19.90;99.90
18240;DHT22;9244;50.828;4.718;2023-07-31T12:34:53;19.90;99.90
18240;DHT22;9244;50.828;4.718;2023-07-31T12:37:20;20.00;99.90
18240;DHT22;9244;50.828;4.718;2023-07-31T12:39:46;19.80;99.90
18240;DHT22;9244;50.828;4.718;2023-07-31T12:42:12;19.70;99.90
18240;DHT22;9244;50.828;4.718;2023-07-31T12:44:37;19.70;99.90
18240;DHT22;9244;50.828;4.718;2023-07-31T12:47:03;19.60;99.90
18240;DHT22;9244;50.828;4.718;2023-07-31T12:49:29;19.70;99.90
18240;DHT22;9244;50.828;4.718;2023-07-31T12:51:55;19.60;99.90
18240;DHT22;9244;50.828;4.718;2023-07-31T12:54:20;19.40;99.90
18240;DHT22;9244;50.828;4.718;2023-07-31T12:56:46;19.20;99.90
18240;DHT22;9244;50.828;4.718;2023-07-31T12:59:12;19.20;99.90
18240;DHT22;9244;50.828;4.718;2023-07-31T13:01:37;19.00;99.90
18240;DHT22;9244;50.828;4.718;2023-07-31T13:04:03;18.90;99.90
18240;DHT22;9244;50.828;4.718;2023-07-31T13:06:30;18.80;99.90
18240;DHT22;9244;50.828;4.718;2023-07-31T13:08:55;18.90;99.90
18240;DHT22;9244;50.828;4.718;2023-07-31T13:11:21;18.90;99.90
18240;DHT22;9244;50.828;4.718;2023-07-31T13:13:47;19.00;99.90
18240;DHT22;9244;50.828;4.718;2023-07-31T13:16:12;19.00;99.90
18240;DHT22;9244;50.828;4.718;2023-07-31T13:18:38;19.10;99.90
18240;DHT22;9244;50.828;4.718;2023-07-31T13:21:03;19.10;99.90
18240;DHT22;9244;50.828;4.718;2023-07-31T13:23:29;19.10;99.90
18240;DHT22;9244;50.828;4.718;2023-07-31T13:25:54;19.10;99.90
18240;DHT22;9244;50.828;4.718;2023-07-31T13:28:20;19.10;99.90
18240;DHT22;9244;50.828;4.718;2023-07-31T13:30:46;19.10;99.90
18240;DHT22;9244;50.828;4.718;2023-07-31T13:33:11;19.10;99.90
18240;DHT22;9244;50.828;4.718;2023-07-31T13:35:37;19.00;99.90
18240;DHT22;9244;50.828;4.718;2023-07-31T13:38:03;18.90;99.90
18240;DHT22;9244;50.828;4.718;2023-07-31T13:40:28;18.80;99.90
18240;DHT22;9244;50.828;4.718;2023-07-31T13:42:54;18.70;99.90
18240;DHT22;9244;50.828;4.718;2023-07-31T13:45:21;18.60;99.90
18240;DHT22;9244;50.828;4.718;2023-07-31T13:47:46;18.50;99.90
18240;DHT22;9244;50.828;4.718;2023-07-31T13:50:12;18.30;99.90
18240;DHT22;9244;50.828;4.718;2023-07-31T13:52:37;17.90;99.90
18240;DHT22;9244;50.828;4.718;2023-07-31T13:55:03;17.90;99.90
18240;DHT22;9244;50.828;4.718;2023-07-31T13:57:29;17.90;99.90
18240;DHT22;9244;50.828;4.718;2023-07-31T13:59:55;17.80;99.90
18240;DHT22;9244;50.828;4.718;2023-07-31T14:02:20;17.80;99.90
18240;DHT22;9244;50.828;4.718;2023-07-31T14:04:46;17.60;99.90
18240;DHT22;9244;50.828;4.718;2023-07-31T14:07:11;17.60;99.90
18240;DHT22;9244;50.828;4.718;2023-07-31T14:09:37;17.60;99.90
18240;DHT22;9244;50.828;4.718;2023-07-31T14:12:03;17.60;99.90
18240;DHT22;9244;50.828;4.718;2023-07-31T14:14:28;17.50;99.90
18240;DHT22;9244;50.828;4.718;2023-07-31T14:16:54;17.50;99.90
18240;DHT22;9244;50.828;4.718;2023-07-31T14:19:20;17.40;99.90
18240;DHT22;9244;50.828;4.718;2023-07-31T14:21:45;17.40;99.90
18240;DHT22;9244;50.828;4.718;2023-07-31T14:24:11;17.40;99.90
18240;DHT22;9244;50.828;4.718;2023-07-31T14:26:37;17.40;99.90
18240;DHT22;9244;50.828;4.718;2023-07-31T14:29:02;17.40;99.90
18240;DHT22;9244;50.828;4.718;2023-07-31T14:31:28;17.50;99.90
18240;DHT22;9244;50.828;4.718;2023-07-31T14:33:53;17.40;99.90
18240;DHT22;9244;50.828;4.718;2023-07-31T14:36:19;17.40;99.90
18240;DHT22;9244;50.828;4.718;2023-07-31T14:38:45;17.30;99.90
18240;DHT22;9244;50.828;4.718;2023-07-31T14:41:10;17.40;99.90
18240;DHT22;9244;50.828;4.718;2023-07-31T14:43:36;17.40;99.90
18240;DHT22;9244;50.828;4.718;2023-07-31T14:46:02;17.50;99.90
18240;DHT22;9244;50.828;4.718;2023-07-31T14:48:27;17.50;99.90
18240;DHT22;9244;50.828;4.718;2023-07-31T14:50:54;17.60;99.90
18240;DHT22;9244;50.828;4.718;2023-07-31T14:53:20;17.60;99.90
18240;DHT22;9244;50.828;4.718;2023-07-31T14:55:46;17.60;99.90
18240;DHT22;9244;50.828;4.718;2023-07-31T14:58:12;17.60;99.90
18240;DHT22;9244;50.828;4.718;2023-07-31T15:00:39;17.60;99.90
18240;DHT22;9244;50.828;4.718;2023-07-31T15:03:04;17.60;99.90
18240;DHT22;9244;50.828;4.718;2023-07-31T15:05:30;17.60;99.90
18240;DHT22;9244;50.828;4.718;2023-07-31T15:07:55;17.60;99.90
18240;DHT22;9244;50.828;4.718;2023-07-31T15:10:22;17.60;99.90
18240;DHT22;9244;50.828;4.718;2023-07-31T15:12:48;17.50;99.90
18240;DHT22;9244;50.828;4.718;2023-07-31T15:15:15;17.50;99.90
18240;DHT22;9244;50.828;4.718;2023-07-31T15:17:42;17.50;99.90
18240;DHT22;9244;50.828;4.718;2023-07-31T15:20:08;17.50;99.90
18240;DHT22;9244;50.828;4.718;2023-07-31T15:22:34;17.50;99.90
18240;DHT22;9244;50.828;4.718;2023-07-31T15:25:00;17.50;99.90
18240;DHT22;9244;50.828;4.718;2023-07-31T15:27:26;17.40;99.90
18240;DHT22;9244;50.828;4.718;2023-07-31T15:29:51;17.40;99.90
18240;DHT22;9244;50.828;4.718;2023-07-31T15:32:17;17.40;99.90
18240;DHT22;9244;50.828;4.718;2023-07-31T15:34:43;17.40;99.90
18240;DHT22;9244;50.828;4.718;2023-07-31T15:37:09;17.40;99.90
18240;DHT22;9244;50.828;4.718;2023-07-31T15:39:34;17.40;99.90
18240;DHT22;9244;50.828;4.718;2023-07-31T15:42:00;17.40;99.90
18240;DHT22;9244;50.828;4.718;2023-07-31T15:44:26;17.40;99.90
18240;DHT22;9244;50.828;4.718;2023-07-31T15:46:51;17.30;99.90
18240;DHT22;9244;50.828;4.718;2023-07-31T15:49:17;17.30;99.90
18240;DHT22;9244;50.828;4.718;2023-07-31T15:51:43;17.30;99.90
18240;DHT22;9244;50.828;4.718;2023-07-31T15:54:08;17.30;99.90